Time;durP1;ratioP1;P1;durP2;ratioP2;P2;SDS_P1;SDS_P2;PMS_P1;PMS_P2;Temp;Humidity;BMP_temperature;BMP_pressure;BME280_temperature;BME280_humidity;BME280_pressure;Samples;Min_cycle;Max_cycle;Signal;HPM_P1;HPM_P2
2021/12/18 00:01:15;;;;;;;3.17;1.52;;;26.90;60.50;;;;;;4101317;28;20168;-57
2021/12/18 00:03:17;;;;;;;3.15;1.50;;;26.90;60.50;;;;;;4104806;28;20080;-57
2021/12/18 00:05:19;;;;;;;2.50;1.50;;;26.90;60.60;;;;;;4131693;28;20155;-56
2021/12/18 00:07:22;;;;;;;2.60;1.50;;;26.90;60.50;;;;;;4106104;28;20056;-57
2021/12/18 00:09:30;;;;;;;2.28;1.42;;;26.90;60.40;;;;;;4103029;28;20053;-56
2021/12/18 00:11:32;;;;;;;2.35;1.30;;;26.90;60.60;;;;;;4127129;28;20110;-57
2021/12/18 00:13:35;;;;;;;2.63;1.70;;;27.00;60.60;;;;;;4112183;28;20239;-56
2021/12/18 00:15:37;;;;;;;3.15;1.83;;;27.00;60.50;;;;;;4127060;28;20049;-57
2021/12/18 00:17:39;;;;;;;1.80;1.40;;;27.00;60.60;;;;;;4125662;28;20056;-57
2021/12/18 00:19:41;;;;;;;2.28;1.27;;;27.00;60.50;;;;;;4128723;28;20435;-57
2021/12/18 00:21:43;;;;;;;3.92;1.95;;;27.00;60.50;;;;;;4133018;28;21046;-56
2021/12/18 00:23:45;;;;;;;2.45;1.25;;;27.00;60.60;;;;;;4121151;28;20049;-56
2021/12/18 00:25:47;;;;;;;4.13;1.87;;;27.00;60.60;;;;;;4123365;28;20170;-58
2021/12/18 00:27:50;;;;;;;2.57;1.40;;;27.00;60.60;;;;;;4129106;28;20064;-56
2021/12/18 00:29:52;;;;;;;2.22;1.48;;;27.00;60.60;;;;;;4119728;28;20140;-56
2021/12/18 00:31:54;;;;;;;2.58;1.48;;;27.10;60.60;;;;;;4100876;28;20143;-57
2021/12/18 00:33:56;;;;;;;3.37;1.97;;;27.10;60.60;;;;;;4110829;28;20697;-55
2021/12/18 00:35:58;;;;;;;2.22;1.33;;;27.10;60.70;;;;;;4106957;28;21567;-55
2021/12/18 00:38:06;;;;;;;2.63;1.42;;;27.10;60.60;;;;;;4101375;28;20135;-57
2021/12/18 00:40:17;;;;;;;2.92;1.77;;;27.10;60.50;;;;;;4102145;28;20673;-56
2021/12/18 00:44:39;;;;;;;3.45;1.45;;;27.20;60.60;;;;;;4100752;28;20073;-56
2021/12/18 00:46:43;;;;;;;4.32;1.58;;;27.20;60.50;;;;;;4119652;28;20060;-57
2021/12/18 00:48:45;;;;;;;2.15;1.50;;;27.20;60.60;;;;;;4111953;28;20396;-55
2021/12/18 00:50:49;;;;;;;2.63;1.50;;;27.30;60.60;;;;;;4119450;28;20111;-57
2021/12/18 00:52:51;;;;;;;2.22;1.40;;;27.30;60.60;;;;;;4103925;28;20099;-56
2021/12/18 00:54:54;;;;;;;2.42;1.58;;;27.30;60.60;;;;;;4108411;28;20053;-57
2021/12/18 00:56:56;;;;;;;2.17;1.30;;;27.40;60.70;;;;;;4108028;28;22049;-55
2021/12/18 00:58:58;;;;;;;1.90;1.23;;;27.40;60.70;;;;;;4101178;28;20058;-57
2021/12/18 01:02:11;;;;;;;1.77;1.27;;;27.40;60.10;;;;;;4141275;27;20445;-57
2021/12/18 01:04:14;;;;;;;2.25;1.63;;;27.40;60.90;;;;;;4149783;28;20052;-59
2021/12/18 01:06:20;;;;;;;2.50;1.60;;;27.40;61.10;;;;;;4157403;28;21636;-58
2021/12/18 01:08:23;;;;;;;2.65;1.65;;;27.50;61.00;;;;;;4150444;28;20194;-57
2021/12/18 01:10:41;;;;;;;2.35;1.70;;;27.50;60.90;;;;;;4149775;28;20170;-57
2021/12/18 01:12:46;;;;;;;3.10;1.73;;;27.50;61.00;;;;;;4146339;28;20712;-57
2021/12/18 01:22:43;;;;;;;2.45;1.50;;;27.60;61.10;;;;;;4155441;28;20052;-56
2021/12/18 01:23:53;;;;;;;2.53;1.42;;;27.70;61.30;;;;;;4160298;28;20060;-59
2021/12/18 01:25:58;;;;;;;2.25;1.40;;;27.70;60.90;;;;;;4170579;28;20056;-57
2021/12/18 01:28:00;;;;;;;2.40;1.60;;;27.70;61.10;;;;;;4151553;28;20048;-57
2021/12/18 01:30:05;;;;;;;3.25;1.65;;;27.70;61.00;;;;;;4155288;28;20049;-58
2021/12/18 01:32:09;;;;;;;3.00;1.63;;;27.80;61.00;;;;;;4156077;28;20049;-59
2021/12/18 01:34:11;;;;;;;2.38;1.60;;;27.80;61.00;;;;;;4148748;28;20548;-57
2021/12/18 01:36:13;;;;;;;1.92;1.42;;;27.80;61.10;;;;;;4149222;28;20202;-57
2021/12/18 01:38:15;;;;;;;2.08;1.50;;;27.80;61.10;;;;;;4160418;28;20067;-59
2021/12/18 01:40:21;;;;;;;2.85;1.98;;;27.90;61.10;;;;;;4155374;28;20048;-57
2021/12/18 01:53:46;;;;;;;2.50;1.55;;;28.00;61.00;;;;;;4159214;28;20056;-56
2021/12/18 01:55:51;;;;;;;2.92;1.60;;;28.10;61.20;;;;;;4165446;28;20048;-54
2021/12/18 01:57:53;;;;;;;1.80;1.50;;;28.10;61.00;;;;;;4154818;28;20304;-53
2021/12/18 01:59:55;;;;;;;1.83;1.43;;;28.10;61.10;;;;;;4152691;28;20079;-56
2021/12/18 02:01:58;;;;;;;2.92;1.75;;;28.20;61.10;;;;;;4164977;28;20060;-58
2021/12/18 02:03:59;;;;;;;;;;;28.20;61.10;;;;;;4168233;28;20059;-57
2021/12/18 02:06:02;;;;;;;2.92;1.98;;;28.20;61.10;;;;;;4159147;28;20023;-57
2021/12/18 02:08:05;;;;;;;2.97;1.92;;;28.30;61.30;;;;;;4162133;28;20048;-57
2021/12/18 02:10:16;;;;;;;2.42;1.58;;;28.30;61.20;;;;;;4166273;28;20901;-56
2021/12/18 02:12:19;;;;;;;4.03;1.75;;;28.30;61.20;;;;;;4163711;28;20565;-55
2021/12/18 02:21:28;;;;;;;4.25;1.75;;;28.50;61.30;;;;;;4141462;28;20169;-58
2021/12/18 02:23:30;;;;;;;2.65;1.63;;;28.50;61.20;;;;;;4143480;28;20100;-57
2021/12/18 02:25:35;;;;;;;3.17;1.70;;;28.60;61.30;;;;;;4151406;28;20052;-57
2021/12/18 02:27:37;;;;;;;2.35;1.88;;;28.60;61.20;;;;;;4146999;28;22141;-57
2021/12/18 02:29:41;;;;;;;1.97;1.60;;;28.60;61.00;;;;;;4142135;28;20056;-58
2021/12/18 02:31:44;;;;;;;2.90;1.80;;;28.60;61.00;;;;;;4143929;28;20138;-58
2021/12/18 02:33:47;;;;;;;3.55;1.50;;;28.70;61.20;;;;;;4149265;28;20571;-58
2021/12/18 02:35:52;;;;;;;;;;;28.70;61.00;;;;;;4141324;28;20970;-59
2021/12/18 02:38:08;;;;;;;2.47;1.75;;;28.70;61.00;;;;;;4139572;28;19921;-59
2021/12/18 02:42:18;;;;;;;2.53;1.60;;;28.80;61.00;;;;;;4141244;28;20058;-59
2021/12/18 02:44:20;;;;;;;3.00;1.60;;;28.80;61.00;;;;;;4142402;28;21539;-59
2021/12/18 02:46:23;;;;;;;1.60;1.45;;;28.90;60.90;;;;;;4149655;28;20559;-60
2021/12/18 02:48:29;;;;;;;2.60;1.50;;;29.00;60.90;;;;;;4139566;28;20610;-58
2021/12/18 02:50:31;;;;;;;3.10;1.55;;;29.00;60.80;;;;;;4139130;28;20364;-58
2021/12/18 02:52:33;;;;;;;2.00;1.50;;;29.00;60.70;;;;;;4145086;28;20079;-58
2021/12/18 02:54:39;;;;;;;3.95;1.70;;;29.00;60.70;;;;;;4145958;28;20170;-57
2021/12/18 02:56:41;;;;;;;1.92;1.60;;;29.10;60.70;;;;;;4136738;28;20140;-58
2021/12/18 02:58:46;;;;;;;2.97;1.87;;;29.20;60.70;;;;;;4140314;28;20131;-57
2021/12/18 03:00:49;;;;;;;3.92;1.75;;;29.20;60.80;;;;;;4131825;28;20075;-57
2021/12/18 03:02:50;;;;;;;;;;;29.20;60.70;;;;;;4131480;28;20061;-57
2021/12/18 03:04:58;;;;;;;4.40;2.25;;;29.30;60.90;;;;;;4138968;28;19975;-58
2021/12/18 03:07:01;;;;;;;3.75;1.77;;;29.30;61.00;;;;;;4138241;28;20143;-58
2021/12/18 03:21:18;;;;;;;2.85;1.83;;;29.60;61.70;;;;;;4137821;28;20138;-57
2021/12/18 03:23:08;;;;;;;3.17;1.90;;;29.60;61.10;;;;;;4146912;28;20142;-58
2021/12/18 03:25:18;;;;;;;4.82;2.40;;;29.70;60.40;;;;;;4142308;28;20068;-56
2021/12/18 03:27:21;;;;;;;3.47;2.35;;;29.70;58.60;;;;;;4137839;28;20040;-58
2021/12/18 03:29:23;;;;;;;3.80;2.40;;;29.60;57.60;;;;;;4145162;28;20143;-56
2021/12/18 03:31:25;;;;;;;4.23;3.37;;;29.50;56.60;;;;;;4138012;28;20046;-57
2021/12/18 03:33:28;;;;;;;7.13;5.40;;;29.40;56.30;;;;;;4136096;28;20056;-56
2021/12/18 03:35:31;;;;;;;;;;;29.30;56.00;;;;;;4139782;28;20040;-57
2021/12/18 03:37:34;;;;;;;7.72;6.93;;;29.20;55.80;;;;;;4148104;28;19928;-56
2021/12/18 03:39:37;;;;;;;7.88;7.07;;;29.10;55.50;;;;;;4133654;28;20059;-57
2021/12/18 03:41:39;;;;;;;8.70;7.75;;;29.10;55.40;;;;;;4128428;28;20045;-55
2021/12/18 03:43:41;;;;;;;9.15;8.25;;;29.00;55.30;;;;;;4131766;28;20408;-56
2021/12/18 03:45:43;;;;;;;11.38;10.18;;;28.90;55.00;;;;;;4146131;28;20058;-54
2021/12/18 03:47:47;;;;;;;12.77;11.13;;;28.90;54.90;;;;;;4132582;28;20409;-57
2021/12/18 03:49:50;;;;;;;12.55;11.25;;;28.80;54.90;;;;;;4124543;28;20084;-56
2021/12/18 03:51:52;;;;;;;13.60;12.30;;;28.70;54.70;;;;;;4125820;28;20056;-58
2021/12/18 03:53:57;;;;;;;12.47;11.20;;;28.70;54.60;;;;;;4144824;28;21286;-58
2021/12/18 03:56:00;;;;;;;12.75;11.50;;;28.60;54.50;;;;;;4145379;28;20820;-57
2021/12/18 03:58:01;;;;;;;;;;;28.60;54.40;;;;;;4135101;28;20056;-56
2021/12/18 04:02:13;;;;;;;10.52;9.52;;;28.50;53.90;;;;;;4085030;27;20444;-54
2021/12/18 04:04:16;;;;;;;11.43;10.27;;;28.40;54.50;;;;;;4088605;28;20103;-56
2021/12/18 04:06:18;;;;;;;12.68;11.38;;;28.40;54.40;;;;;;4094298;28;20057;-57
2021/12/18 04:08:20;;;;;;;12.05;10.85;;;28.30;54.40;;;;;;4083874;28;20072;-54
2021/12/18 04:10:22;;;;;;;11.52;10.40;;;28.30;54.30;;;;;;4082168;28;20077;-56
2021/12/18 04:12:25;;;;;;;14.17;12.87;;;28.30;54.40;;;;;;4086354;28;20046;-57
2021/12/18 04:14:27;;;;;;;15.63;14.03;;;28.20;54.30;;;;;;4092602;28;20181;-56
2021/12/18 04:16:29;;;;;;;16.20;14.47;;;28.20;54.40;;;;;;4082227;28;22061;-56
2021/12/18 04:18:31;;;;;;;17.40;15.60;;;28.10;54.30;;;;;;4084589;28;20516;-56
2021/12/18 04:20:33;;;;;;;17.40;15.55;;;28.10;54.40;;;;;;4086544;28;20173;-56
2021/12/18 04:22:35;;;;;;;17.35;15.45;;;28.00;54.30;;;;;;4126024;27;20088;-56
2021/12/18 04:24:37;;;;;;;16.42;14.60;;;28.00;54.40;;;;;;4083780;28;20085;-55
2021/12/18 04:26:40;;;;;;;18.40;16.50;;;27.90;54.10;;;;;;4079969;28;20046;-56
2021/12/18 04:28:42;;;;;;;22.08;19.88;;;27.90;54.00;;;;;;4081399;28;20046;-55
2021/12/18 04:30:44;;;;;;;23.52;21.15;;;27.80;54.00;;;;;;4090242;28;20073;-53
2021/12/18 04:32:46;;;;;;;25.05;22.45;;;27.80;54.00;;;;;;4085961;28;20712;-53
2021/12/18 04:34:49;;;;;;;23.55;21.15;;;27.70;54.30;;;;;;4071689;28;20085;-55
2021/12/18 04:36:51;;;;;;;23.38;20.98;;;27.70;54.60;;;;;;4056513;28;20510;-57
2021/12/18 04:38:53;;;;;;;21.40;19.40;;;27.60;54.60;;;;;;4072482;28;20298;-56
2021/12/18 04:40:55;;;;;;;19.93;17.93;;;27.50;54.70;;;;;;4070268;28;20058;-55
2021/12/18 04:42:58;;;;;;;17.58;15.77;;;27.50;54.80;;;;;;4065046;28;20907;-54
2021/12/18 04:45:00;;;;;;;17.23;15.43;;;27.50;54.70;;;;;;4067043;28;20050;-56
2021/12/18 04:47:02;;;;;;;15.38;13.77;;;27.50;54.90;;;;;;4073234;28;20768;-55
2021/12/18 04:49:05;;;;;;;14.85;13.30;;;27.40;54.90;;;;;;4073254;28;20219;-54
2021/12/18 04:51:07;;;;;;;12.98;11.68;;;27.40;55.00;;;;;;4065887;28;20858;-54
2021/12/18 04:53:10;;;;;;;11.25;10.13;;;27.30;55.10;;;;;;4067226;28;20059;-54
2021/12/18 04:55:12;;;;;;;;;;;27.30;55.40;;;;;;4069639;28;20074;-56
2021/12/18 04:57:14;;;;;;;9.95;8.95;;;27.30;55.40;;;;;;4105178;28;19930;-56
2021/12/18 04:59:16;;;;;;;9.30;7.85;;;27.20;55.50;;;;;;4064972;28;20050;-55
2021/12/18 05:01:19;;;;;;;8.48;7.38;;;27.20;55.30;;;;;;4066789;28;20195;-55
2021/12/18 05:03:21;;;;;;;7.37;6.43;;;27.20;55.60;;;;;;4069872;28;20104;-56
2021/12/18 05:05:23;;;;;;;7.53;6.43;;;27.20;55.60;;;;;;4077478;28;20072;-54
2021/12/18 05:07:26;;;;;;;7.20;5.93;;;27.10;55.50;;;;;;4068443;28;20051;-52
2021/12/18 05:09:28;;;;;;;6.70;5.50;;;27.10;55.50;;;;;;4069488;28;20058;-53
2021/12/18 05:11:31;;;;;;;6.28;5.30;;;27.10;55.60;;;;;;4068935;28;20132;-56
2021/12/18 05:13:33;;;;;;;5.93;5.00;;;27.10;55.80;;;;;;4070922;28;20057;-56
2021/12/18 05:15:35;;;;;;;6.65;4.97;;;27.00;56.20;;;;;;4060557;28;21141;-55
2021/12/18 05:17:37;;;;;;;5.35;4.32;;;27.00;56.60;;;;;;4059438;28;20101;-53
2021/12/18 05:19:40;;;;;;;6.40;4.57;;;27.10;57.10;;;;;;4057360;28;20574;-55
2021/12/18 05:21:42;;;;;;;5.97;4.20;;;27.20;57.30;;;;;;4067444;28;20125;-55
2021/12/18 05:23:44;;;;;;;6.13;3.78;;;27.30;57.70;;;;;;4062616;28;20051;-55
2021/12/18 05:25:46;;;;;;;6.75;3.72;;;27.30;57.80;;;;;;4057374;28;20440;-55
2021/12/18 05:27:48;;;;;;;5.38;3.70;;;27.40;58.20;;;;;;4060231;28;20622;-55
2021/12/18 05:29:50;;;;;;;4.57;3.57;;;27.50;58.40;;;;;;4070566;28;20542;-57
2021/12/18 05:31:53;;;;;;;4.20;3.22;;;27.60;58.60;;;;;;4061886;28;20447;-56
2021/12/18 05:33:59;;;;;;;4.72;3.10;;;27.70;58.70;;;;;;4062512;28;20486;-57
2021/12/18 05:36:03;;;;;;;4.88;3.17;;;27.90;58.90;;;;;;4060486;28;20055;-57
2021/12/18 05:38:05;;;;;;;4.18;3.13;;;28.00;59.00;;;;;;4060545;28;20058;-58
2021/12/18 05:40:08;;;;;;;4.73;3.13;;;28.00;59.00;;;;;;4070861;28;20600;-56
2021/12/18 05:42:10;;;;;;;3.65;2.70;;;28.10;59.30;;;;;;4062554;28;20103;-55
2021/12/18 05:44:12;;;;;;;4.93;3.05;;;28.20;59.20;;;;;;4062860;28;20074;-58
2021/12/18 05:46:15;;;;;;;5.22;2.97;;;28.30;59.20;;;;;;4062393;28;20095;-55
2021/12/18 05:48:17;;;;;;;4.15;2.42;;;28.40;59.30;;;;;;4068901;28;20085;-58
2021/12/18 05:50:21;;;;;;;4.68;2.25;;;28.40;59.30;;;;;;4067010;28;21629;-58
2021/12/18 05:52:24;;;;;;;3.72;2.00;;;28.50;59.50;;;;;;4058677;28;20545;-54
2021/12/18 05:54:26;;;;;;;4.90;2.72;;;28.50;59.40;;;;;;4060918;28;20114;-58
2021/12/18 05:56:28;;;;;;;4.70;2.27;;;28.60;59.50;;;;;;4061356;28;20047;-57
2021/12/18 05:58:30;;;;;;;4.45;2.20;;;28.70;59.60;;;;;;4068773;28;20055;-55
2021/12/18 06:00:33;;;;;;;3.00;1.67;;;28.80;59.60;;;;;;4061594;28;20089;-56
2021/12/18 06:02:35;;;;;;;4.18;2.15;;;28.80;59.60;;;;;;4060081;28;20066;-55
2021/12/18 06:04:37;;;;;;;2.43;1.87;;;28.90;59.60;;;;;;4057860;28;20062;-58
2021/12/18 06:06:39;;;;;;;3.83;1.90;;;29.00;59.60;;;;;;4070220;28;20070;-57
2021/12/18 06:08:42;;;;;;;2.80;1.77;;;29.00;59.60;;;;;;4066235;28;21297;-54
2021/12/18 06:10:44;;;;;;;;;;;29.10;59.60;;;;;;4066407;28;20057;-55
2021/12/18 06:12:46;;;;;;;3.28;1.90;;;29.10;59.60;;;;;;4067230;28;19937;-54
2021/12/18 06:14:49;;;;;;;2.97;1.98;;;29.20;59.70;;;;;;4069442;28;20057;-56
2021/12/18 06:16:51;;;;;;;3.58;1.70;;;29.30;59.60;;;;;;4063879;28;20058;-56
2021/12/18 06:18:54;;;;;;;2.92;1.60;;;29.40;59.70;;;;;;4055864;28;20097;-55
2021/12/18 06:20:56;;;;;;;;;;;29.50;59.70;;;;;;4055015;28;20596;-54
2021/12/18 06:22:58;;;;;;;2.38;1.70;;;29.60;59.60;;;;;;4060973;28;19930;-58
2021/12/18 06:25:01;;;;;;;1.92;1.40;;;29.60;59.60;;;;;;4058446;28;20066;-51
2021/12/18 06:27:03;;;;;;;4.23;1.70;;;29.70;59.60;;;;;;4056832;28;20107;-53
2021/12/18 06:29:05;;;;;;;3.38;1.60;;;29.80;59.50;;;;;;4058202;28;20348;-55
2021/12/18 06:31:08;;;;;;;2.70;1.52;;;29.90;59.50;;;;;;4063293;28;20075;-57
2021/12/18 06:33:09;;;;;;;;;;;30.00;59.50;;;;;;4066026;28;20051;-57
2021/12/18 06:35:12;;;;;;;2.53;1.45;;;30.00;59.40;;;;;;4059846;28;19930;-55
2021/12/18 06:37:14;;;;;;;1.73;1.40;;;30.10;59.40;;;;;;4057984;28;20047;-57
2021/12/18 06:39:16;;;;;;;3.50;1.88;;;30.10;59.40;;;;;;4063436;28;20130;-57
2021/12/18 06:41:18;;;;;;;4.63;2.50;;;30.20;59.80;;;;;;4051089;28;20195;-57
2021/12/18 06:43:20;;;;;;;6.32;4.13;;;30.20;58.10;;;;;;4060024;28;20061;-56
2021/12/18 06:45:23;;;;;;;7.33;5.00;;;30.10;57.40;;;;;;4055468;28;20435;-56
2021/12/18 06:47:25;;;;;;;7.70;5.90;;;30.00;56.90;;;;;;4059894;28;20316;-57
2021/12/18 06:49:27;;;;;;;9.95;6.70;;;29.90;56.40;;;;;;4065200;28;20241;-53
2021/12/18 06:51:29;;;;;;;9.57;6.40;;;29.80;56.00;;;;;;4058668;28;20055;-55
2021/12/18 06:53:31;;;;;;;11.00;6.53;;;29.70;55.60;;;;;;4039915;28;20059;-55
2021/12/18 06:55:34;;;;;;;9.00;5.97;;;29.60;55.20;;;;;;4061083;28;20053;-56
2021/12/18 06:57:36;;;;;;;8.80;6.10;;;29.60;54.80;;;;;;4062572;28;20185;-55
2021/12/18 06:59:39;;;;;;;8.55;5.63;;;29.50;54.60;;;;;;4085629;28;21875;-54
2021/12/18 07:02:14;;;;;;;6.97;5.05;;;29.40;53.80;;;;;;4143636;27;20434;-51
2021/12/18 07:04:16;;;;;;;6.57;4.80;;;29.40;54.30;;;;;;4143422;28;20049;-51
2021/12/18 07:06:19;;;;;;;5.72;4.60;;;29.30;54.10;;;;;;4152149;28;20320;-52
2021/12/18 07:08:21;;;;;;;6.93;4.70;;;29.30;54.10;;;;;;4144710;28;20052;-51
2021/12/18 07:10:23;;;;;;;6.50;3.90;;;29.20;53.90;;;;;;4142084;28;20163;-52
2021/12/18 07:12:25;;;;;;;5.65;4.10;;;29.20;53.90;;;;;;4142679;28;20049;-50
2021/12/18 07:14:27;;;;;;;5.90;3.60;;;29.10;53.70;;;;;;4153561;28;20152;-54
2021/12/18 07:16:30;;;;;;;5.35;3.65;;;29.00;53.80;;;;;;4146001;28;22309;-53
2021/12/18 07:18:33;;;;;;;4.57;3.15;;;29.00;53.60;;;;;;4144183;28;20052;-51
2021/12/18 07:20:35;;;;;;;4.65;3.30;;;28.90;53.60;;;;;;4143007;28;20048;-53
2021/12/18 07:22:38;;;;;;;4.53;2.90;;;28.90;53.80;;;;;;4149623;28;20059;-54
2021/12/18 07:24:40;;;;;;;;;;;28.90;54.30;;;;;;4151803;28;20313;-54
2021/12/18 07:26:42;;;;;;;5.00;3.10;;;28.90;54.80;;;;;;4144047;28;19938;-52
2021/12/18 07:28:44;;;;;;;4.20;2.70;;;29.00;54.90;;;;;;4143565;28;20052;-52
2021/12/18 07:30:46;;;;;;;5.20;3.00;;;29.10;55.30;;;;;;4154566;28;21214;-54
2021/12/18 07:32:48;;;;;;;4.05;2.65;;;29.20;55.70;;;;;;4161745;28;21223;-53
2021/12/18 07:34:50;;;;;;;3.47;2.17;;;29.20;55.80;;;;;;4128691;28;20064;-49
2021/12/18 07:36:53;;;;;;;4.13;2.40;;;29.30;56.00;;;;;;4130965;28;20049;-55
2021/12/18 07:38:55;;;;;;;3.50;2.28;;;29.30;56.10;;;;;;4129118;28;20044;-51
2021/12/18 07:40:57;;;;;;;3.77;2.03;;;29.40;56.50;;;;;;4122755;28;20095;-53
2021/12/18 07:42:59;;;;;;;4.17;2.00;;;29.40;56.60;;;;;;4123958;28;20044;-54
2021/12/18 07:45:02;;;;;;;3.60;2.22;;;29.50;56.80;;;;;;4131165;28;20827;-49
2021/12/18 07:47:05;;;;;;;3.67;2.45;;;29.60;57.30;;;;;;4124055;28;21021;-50
2021/12/18 07:49:08;;;;;;;5.32;2.92;;;29.50;56.50;;;;;;4121706;28;20063;-52
2021/12/18 07:51:11;;;;;;;4.18;2.70;;;29.40;56.10;;;;;;4129068;28;20038;-55
2021/12/18 07:53:16;;;;;;;4.25;2.80;;;29.30;55.80;;;;;;4128268;28;20172;-48
2021/12/18 07:55:19;;;;;;;5.63;2.83;;;29.30;55.50;;;;;;4121849;28;20500;-53
2021/12/18 07:57:21;;;;;;;4.53;2.60;;;29.20;55.20;;;;;;4123215;28;20086;-48
2021/12/18 07:59:24;;;;;;;4.93;2.70;;;29.20;55.10;;;;;;4134252;28;20056;-52
2021/12/18 08:01:26;;;;;;;4.18;2.80;;;29.10;54.90;;;;;;4128341;28;20140;-54
2021/12/18 08:03:28;;;;;;;4.53;2.75;;;29.10;55.00;;;;;;4126750;28;20593;-49
2021/12/18 08:05:30;;;;;;;4.10;2.65;;;29.00;54.70;;;;;;4131119;28;20049;-52
2021/12/18 08:07:33;;;;;;;4.18;2.80;;;28.90;54.60;;;;;;4131306;28;20104;-51
2021/12/18 08:09:36;;;;;;;4.43;2.72;;;28.90;54.50;;;;;;4124007;28;20967;-50
2021/12/18 08:11:38;;;;;;;4.45;2.40;;;28.80;54.00;;;;;;4123639;28;20060;-49
2021/12/18 08:13:40;;;;;;;4.67;2.63;;;28.80;54.50;;;;;;4120847;28;20146;-53
2021/12/18 08:15:42;;;;;;;5.13;2.67;;;28.70;54.50;;;;;;4114905;28;21648;-53
2021/12/18 08:17:44;;;;;;;5.40;2.73;;;28.70;54.50;;;;;;4112937;28;21013;-51
2021/12/18 08:19:46;;;;;;;4.10;2.80;;;28.60;54.40;;;;;;4120571;28;21317;-55
2021/12/18 08:21:48;;;;;;;4.57;2.72;;;28.60;54.40;;;;;;4118624;28;20056;-50
2021/12/18 08:23:51;;;;;;;4.50;2.70;;;28.60;54.40;;;;;;4113115;28;20041;-54
2021/12/18 08:25:53;;;;;;;5.63;2.53;;;28.50;54.50;;;;;;4115365;28;20513;-53
2021/12/18 08:27:58;;;;;;;6.23;2.67;;;28.40;54.40;;;;;;4124505;28;20168;-52
2021/12/18 08:30:00;;;;;;;4.25;2.70;;;28.40;54.50;;;;;;4116499;28;21449;-49
2021/12/18 08:32:03;;;;;;;6.28;2.80;;;28.40;54.50;;;;;;4116493;28;20052;-49
2021/12/18 08:34:05;;;;;;;6.13;2.75;;;28.30;54.50;;;;;;4123105;28;20048;-54
2021/12/18 08:36:07;;;;;;;4.60;2.60;;;28.30;54.60;;;;;;4125011;28;21253;-52
2021/12/18 08:38:10;;;;;;;4.27;2.77;;;28.20;54.60;;;;;;4114186;28;20263;-53
2021/12/18 08:40:13;;;;;;;4.75;2.63;;;28.20;54.50;;;;;;4113597;28;20094;-53
2021/12/18 08:42:14;;;;;;;;;;;28.10;54.50;;;;;;4124724;28;20550;-50
2021/12/18 08:44:17;;;;;;;6.22;3.03;;;28.10;54.60;;;;;;4113420;28;21945;-48
2021/12/18 08:46:19;;;;;;;5.18;3.00;;;28.10;54.70;;;;;;4114010;28;21141;-52
2021/12/18 08:48:21;;;;;;;3.97;3.05;;;28.00;54.70;;;;;;4122610;28;20650;-54
2021/12/18 08:50:24;;;;;;;6.03;3.40;;;28.00;54.70;;;;;;4120304;28;22189;-47
2021/12/18 08:52:26;;;;;;;3.78;2.70;;;27.90;54.60;;;;;;4115067;28;20664;-53
2021/12/18 08:54:28;;;;;;;3.80;2.63;;;27.90;54.60;;;;;;4119168;28;20048;-55
2021/12/18 08:56:30;;;;;;;3.23;2.47;;;27.80;54.70;;;;;;4125476;28;20049;-53
2021/12/18 08:58:32;;;;;;;4.07;2.87;;;27.80;54.60;;;;;;4114629;28;20154;-50
2021/12/18 09:00:34;;;;;;;4.20;2.70;;;27.80;54.70;;;;;;4110903;28;20064;-52
2021/12/18 09:02:40;;;;;;;3.80;2.88;;;27.70;54.70;;;;;;4119151;28;20076;-55
2021/12/18 09:04:42;;;;;;;4.45;3.10;;;27.70;54.80;;;;;;4119886;28;21637;-51
2021/12/18 09:06:44;;;;;;;7.00;3.00;;;27.70;54.90;;;;;;4116012;28;20057;-55
2021/12/18 09:08:46;;;;;;;4.50;3.10;;;27.60;54.90;;;;;;4119402;28;20053;-55
2021/12/18 09:10:49;;;;;;;3.95;3.03;;;27.50;54.90;;;;;;4123890;28;20068;-49
2021/12/18 09:12:51;;;;;;;5.28;2.95;;;27.50;54.80;;;;;;4114211;28;20198;-56
2021/12/18 09:14:54;;;;;;;5.55;3.03;;;27.50;54.90;;;;;;4112689;28;20049;-53
2021/12/18 09:16:56;;;;;;;4.60;2.60;;;27.50;55.30;;;;;;4123398;28;20052;-53
2021/12/18 09:18:58;;;;;;;4.43;2.75;;;27.50;55.50;;;;;;4114719;28;20048;-49
2021/12/18 09:21:02;;;;;;;5.00;2.92;;;27.50;55.80;;;;;;4112654;28;20053;-53
2021/12/18 09:23:04;;;;;;;3.83;2.40;;;27.50;56.00;;;;;;4118563;28;20091;-53
2021/12/18 09:25:07;;;;;;;3.53;2.30;;;27.60;56.20;;;;;;4124678;28;20752;-53
2021/12/18 09:27:09;;;;;;;4.13;2.45;;;27.70;56.50;;;;;;4113688;28;20155;-52
2021/12/18 09:29:11;;;;;;;3.38;2.17;;;27.70;56.60;;;;;;4116967;28;21147;-54
2021/12/18 09:31:14;;;;;;;3.03;1.85;;;27.80;56.80;;;;;;4123896;28;21111;-51
2021/12/18 09:33:17;;;;;;;4.18;2.38;;;27.80;57.20;;;;;;4116431;28;20053;-54
2021/12/18 09:35:21;;;;;;;4.38;2.38;;;27.90;57.20;;;;;;4113604;28;20041;-49
2021/12/18 09:37:23;;;;;;;3.42;1.95;;;27.90;57.20;;;;;;4101229;28;20069;-55
2021/12/18 09:39:25;;;;;;;3.63;1.88;;;28.00;57.40;;;;;;4126443;28;21166;-53
2021/12/18 09:41:27;;;;;;;4.30;2.07;;;28.00;57.50;;;;;;4119224;28;20065;-51
2021/12/18 09:43:30;;;;;;;2.60;1.70;;;28.10;57.60;;;;;;4119596;28;20492;-49
2021/12/18 09:45:32;;;;;;;3.67;1.83;;;28.10;57.60;;;;;;4130508;28;20151;-52
2021/12/18 09:47:34;;;;;;;1.90;1.50;;;28.20;57.80;;;;;;4122231;28;20045;-50
2021/12/18 09:49:38;;;;;;;3.37;1.77;;;28.20;57.80;;;;;;4116975;28;20056;-54
2021/12/18 09:51:41;;;;;;;2.30;1.60;;;28.30;58.60;;;;;;4123459;28;20052;-55
2021/12/18 09:53:43;;;;;;;1.98;1.38;;;28.30;57.90;;;;;;4128599;28;20411;-50
2021/12/18 09:55:45;;;;;;;2.53;1.50;;;28.40;58.00;;;;;;4118905;28;20184;-50
2021/12/18 09:57:49;;;;;;;2.70;1.47;;;28.40;58.00;;;;;;4120935;28;20110;-56
2021/12/18 09:59:52;;;;;;;3.75;2.20;;;28.50;58.20;;;;;;4092876;28;20068;-51
2021/12/18 10:02:11;;;;;;;6.50;2.83;;;28.50;58.40;;;;;;4149140;27;20550;-53
2021/12/18 10:04:36;;;;;;;11.87;2.93;;;28.50;58.20;;;;;;4157229;28;20206;-52
2021/12/18 10:06:44;;;;;;;3.95;2.85;;;28.40;57.10;;;;;;4147128;28;20048;-58
2021/12/18 10:08:46;;;;;;;3.72;2.50;;;28.30;56.50;;;;;;4148913;28;20056;-53
2021/12/18 10:11:07;;;;;;;3.30;2.50;;;28.10;55.80;;;;;;4160991;28;20064;-53
2021/12/18 10:13:10;;;;;;;4.38;2.67;;;28.00;55.30;;;;;;4156803;28;20336;-55
2021/12/18 10:15:17;;;;;;;3.72;2.65;;;27.90;55.50;;;;;;4166178;28;20072;-54
2021/12/18 10:17:31;;;;;;;6.15;3.42;;;27.90;59.70;;;;;;4163644;28;20056;-54
2021/12/18 10:19:41;;;;;;;3.53;2.42;;;27.90;61.90;;;;;;4159801;28;20052;-55
2021/12/18 10:21:56;;;;;;;4.32;2.72;;;27.80;58.60;;;;;;4156696;28;21992;-54
2021/12/18 10:24:13;;;;;;;4.53;2.45;;;27.80;58.20;;;;;;4156128;28;20175;-53
2021/12/18 10:26:42;;;;;;;4.00;2.65;;;27.70;57.20;;;;;;4159219;28;20624;-52
2021/12/18 10:28:46;;;;;;;4.57;2.90;;;27.50;55.50;;;;;;4147813;28;20044;-49
2021/12/18 10:30:54;;;;;;;4.00;2.70;;;27.40;55.40;;;;;;4147334;28;20099;-50
2021/12/18 10:33:09;;;;;;;4.82;2.70;;;27.30;54.20;;;;;;4150374;28;20048;-54
2021/12/18 10:35:12;;;;;;;5.32;2.83;;;27.20;54.60;;;;;;4133711;28;20048;-52
2021/12/18 10:37:26;;;;;;;4.00;2.70;;;27.20;54.20;;;;;;4139471;28;20092;-53
2021/12/18 10:39:29;;;;;;;4.53;2.67;;;27.10;54.10;;;;;;4138104;28;20787;-57
2021/12/18 10:41:35;;;;;;;4.60;2.63;;;27.00;53.80;;;;;;4137277;28;20791;-51
2021/12/18 10:43:58;;;;;;;4.60;2.88;;;26.90;53.70;;;;;;4134264;28;20069;-54
2021/12/18 10:46:01;;;;;;;5.47;2.92;;;26.90;53.50;;;;;;4140965;28;20714;-50
2021/12/18 10:48:09;;;;;;;4.50;3.15;;;26.80;53.50;;;;;;4131738;28;20204;-52
2021/12/18 10:50:28;;;;;;;4.30;2.75;;;26.70;53.50;;;;;;4129707;28;20084;-53
2021/12/18 10:52:39;;;;;;;5.00;3.10;;;26.70;53.40;;;;;;4130752;28;20052;-53
2021/12/18 10:54:42;;;;;;;4.78;2.45;;;26.60;53.40;;;;;;4130854;28;20089;-50
2021/12/18 10:56:47;;;;;;;5.30;2.70;;;26.50;53.30;;;;;;4129865;28;20049;-50
2021/12/18 10:58:49;;;;;;;3.80;2.90;;;26.50;53.20;;;;;;4128749;28;20052;-55
2021/12/18 11:00:57;;;;;;;4.68;3.08;;;26.40;53.30;;;;;;4152206;28;21897;-54
2021/12/18 11:03:17;;;;;;;3.83;2.90;;;26.30;53.20;;;;;;4169175;28;20107;-55
2021/12/18 11:05:19;;;;;;;6.45;2.95;;;26.30;53.30;;;;;;4170328;28;20088;-51
2021/12/18 11:07:24;;;;;;;4.00;2.67;;;26.20;53.20;;;;;;4172127;28;20040;-53
2021/12/18 11:09:34;;;;;;;3.63;2.50;;;26.10;53.20;;;;;;4172199;28;20079;-53
2021/12/18 11:13:48;;;;;;;3.53;2.53;;;26.00;53.20;;;;;;4158167;28;20061;-52
2021/12/18 11:15:51;;;;;;;4.53;2.97;;;26.00;53.20;;;;;;4164200;28;20055;-50
2021/12/18 11:17:53;;;;;;;5.25;2.85;;;25.90;53.30;;;;;;4157416;28;20052;-57
2021/12/18 11:19:55;;;;;;;4.78;2.85;;;25.90;53.30;;;;;;4159844;28;20056;-52
2021/12/18 11:22:00;;;;;;;4.25;3.15;;;25.80;53.40;;;;;;4158845;28;20057;-54
2021/12/18 11:24:08;;;;;;;4.18;2.88;;;25.80;53.50;;;;;;4158943;28;20060;-50
2021/12/18 11:26:12;;;;;;;5.18;3.08;;;25.70;53.40;;;;;;4158589;28;20095;-54
2021/12/18 11:28:16;;;;;;;4.05;2.67;;;25.60;53.40;;;;;;4162044;28;20179;-49
2021/12/18 11:30:18;;;;;;;4.03;2.78;;;25.60;53.30;;;;;;4164522;28;20119;-53
2021/12/18 11:32:26;;;;;;;4.63;2.92;;;25.60;53.50;;;;;;4160161;28;20049;-53